Port Clinton, Pennsylvania
Current Conditions -  °F | °C
As of 12:54 AM on Thursday 23 Oct 2014 (Local Time) from KRDG Reporting Station
Light Rain Light Rain  
Wind Chill: 53°   Ceiling: 2900
Heat Index: 53°   Visibility: 10mi
Dew Point: 43°   Wind: 17mph
Humidity: 69%   Direction: 340°NNW
Pressure: 29.85"   Gusts: 23mph
Location:  40.58°N, 76.02°W
Report Text: KRDG 230454Z 34015G20KT 10SM -RA OVC029 12/06 A2985 RMK AO2 RAB46 SLP111 P0000 T01170061 401390094
Loading
Personal Weather Stations






























Interactive Weather Map
Tropical Storm Tracking
New forecast layout! Learn more

10-Day Weather Forecast

Advertisements
Track Severe Weather on mobile